sensor_id;sensor_type;location;lat;lon;timestamp;P1;durP1;ratioP1;P2;durP2;ratioP2
71462;SDS011;59266;52.608;13.260;2022-09-11T00:01:06;12.45;;;6.78;;
71462;SDS011;59266;52.608;13.260;2022-09-11T00:03:32;13.07;;;6.53;;
71462;SDS011;59266;52.608;13.260;2022-09-11T00:06:01;15.63;;;6.90;;
71462;SDS011;59266;52.608;13.260;2022-09-11T00:08:28;11.18;;;5.63;;
71462;SDS011;59266;52.608;13.260;2022-09-11T00:11:10;12.77;;;6.40;;
71462;SDS011;59266;52.608;13.260;2022-09-11T00:13:39;12.07;;;5.82;;
71462;SDS011;59266;52.608;13.260;2022-09-11T00:16:06;11.18;;;6.05;;
71462;SDS011;59266;52.608;13.260;2022-09-11T00:18:45;11.95;;;5.90;;
71462;SDS011;59266;52.608;13.260;2022-09-11T00:21:12;11.52;;;6.18;;
71462;SDS011;59266;52.608;13.260;2022-09-11T00:23:38;15.20;;;7.25;;
71462;SDS011;59266;52.608;13.260;2022-09-11T00:26:05;12.15;;;5.93;;
71462;SDS011;59266;52.608;13.260;2022-09-11T00:28:31;11.63;;;6.57;;
71462;SDS011;59266;52.608;13.260;2022-09-11T00:31:00;13.93;;;7.10;;
71462;SDS011;59266;52.608;13.260;2022-09-11T00:33:29;15.07;;;6.03;;
71462;SDS011;59266;52.608;13.260;2022-09-11T00:35:56;11.73;;;5.97;;
71462;SDS011;59266;52.608;13.260;2022-09-11T00:38:26;10.20;;;5.10;;
71462;SDS011;59266;52.608;13.260;2022-09-11T00:40:56;11.27;;;5.55;;
71462;SDS011;59266;52.608;13.260;2022-09-11T00:43:26;12.27;;;6.40;;
71462;SDS011;59266;52.608;13.260;2022-09-11T00:45:54;9.95;;;4.93;;
71462;SDS011;59266;52.608;13.260;2022-09-11T00:48:29;9.43;;;5.25;;
71462;SDS011;59266;52.608;13.260;2022-09-11T00:50:59;14.27;;;5.82;;
71462;SDS011;59266;52.608;13.260;2022-09-11T00:53:29;13.38;;;5.68;;
71462;SDS011;59266;52.608;13.260;2022-09-11T00:55:59;10.73;;;5.38;;
71462;SDS011;59266;52.608;13.260;2022-09-11T00:58:29;12.02;;;5.90;;
71462;SDS011;59266;52.608;13.260;2022-09-11T01:00:59;12.57;;;5.97;;
71462;SDS011;59266;52.608;13.260;2022-09-11T01:03:28;12.10;;;5.97;;
71462;SDS011;59266;52.608;13.260;2022-09-11T01:05:57;11.95;;;5.85;;
71462;SDS011;59266;52.608;13.260;2022-09-11T01:08:24;11.45;;;5.82;;
71462;SDS011;59266;52.608;13.260;2022-09-11T01:13:46;10.80;;;5.90;;
71462;SDS011;59266;52.608;13.260;2022-09-11T01:16:25;10.18;;;5.70;;
71462;SDS011;59266;52.608;13.260;2022-09-11T01:19:12;12.48;;;5.30;;
71462;SDS011;59266;52.608;13.260;2022-09-11T01:27:29;12.00;;;6.05;;
71462;SDS011;59266;52.608;13.260;2022-09-11T01:30:14;12.75;;;5.93;;
71462;SDS011;59266;52.608;13.260;2022-09-11T01:38:20;9.98;;;5.22;;
71462;SDS011;59266;52.608;13.260;2022-09-11T01:41:06;11.00;;;5.43;;
71462;SDS011;59266;52.608;13.260;2022-09-11T01:43:40;11.15;;;6.25;;
71462;SDS011;59266;52.608;13.260;2022-09-11T01:46:12;12.65;;;5.05;;
71462;SDS011;59266;52.608;13.260;2022-09-11T01:48:49;10.82;;;5.50;;
71462;SDS011;59266;52.608;13.260;2022-09-11T01:51:24;9.57;;;5.15;;
71462;SDS011;59266;52.608;13.260;2022-09-11T01:53:54;11.35;;;5.57;;
71462;SDS011;59266;52.608;13.260;2022-09-11T01:56:25;10.32;;;4.75;;
71462;SDS011;59266;52.608;13.260;2022-09-11T01:59:05;11.45;;;5.15;;
71462;SDS011;59266;52.608;13.260;2022-09-11T02:01:35;10.18;;;4.70;;
71462;SDS011;59266;52.608;13.260;2022-09-11T02:04:06;10.90;;;5.35;;
71462;SDS011;59266;52.608;13.260;2022-09-11T02:06:39;10.30;;;5.18;;
71462;SDS011;59266;52.608;13.260;2022-09-11T02:09:12;10.25;;;5.07;;
71462;SDS011;59266;52.608;13.260;2022-09-11T02:11:43;9.88;;;5.20;;
71462;SDS011;59266;52.608;13.260;2022-09-11T02:14:16;10.77;;;5.13;;
71462;SDS011;59266;52.608;13.260;2022-09-11T02:16:51;11.43;;;5.40;;
71462;SDS011;59266;52.608;13.260;2022-09-11T02:19:23;13.10;;;5.57;;
71462;SDS011;59266;52.608;13.260;2022-09-11T02:21:51;10.07;;;5.13;;
71462;SDS011;59266;52.608;13.260;2022-09-11T02:24:18;12.50;;;5.22;;
71462;SDS011;59266;52.608;13.260;2022-09-11T02:26:49;13.77;;;5.65;;
71462;SDS011;59266;52.608;13.260;2022-09-11T02:29:19;13.18;;;5.25;;
71462;SDS011;59266;52.608;13.260;2022-09-11T02:31:46;14.38;;;5.88;;
71462;SDS011;59266;52.608;13.260;2022-09-11T02:34:14;12.75;;;5.97;;
71462;SDS011;59266;52.608;13.260;2022-09-11T02:36:59;15.07;;;6.13;;
71462;SDS011;59266;52.608;13.260;2022-09-11T02:42:22;12.52;;;5.82;;
71462;SDS011;59266;52.608;13.260;2022-09-11T02:48:18;13.80;;;6.65;;
71462;SDS011;59266;52.608;13.260;2022-09-11T02:50:58;13.15;;;6.18;;
71462;SDS011;59266;52.608;13.260;2022-09-11T02:56:34;20.00;;;8.30;;
71462;SDS011;59266;52.608;13.260;2022-09-11T02:59:15;17.90;;;7.88;;
71462;SDS011;59266;52.608;13.260;2022-09-11T03:01:49;23.70;;;8.80;;
71462;SDS011;59266;52.608;13.260;2022-09-11T03:04:21;21.55;;;8.95;;
71462;SDS011;59266;52.608;13.260;2022-09-11T03:06:49;22.90;;;9.23;;
71462;SDS011;59266;52.608;13.260;2022-09-11T03:09:17;32.63;;;9.70;;
71462;SDS011;59266;52.608;13.260;2022-09-11T03:11:44;32.58;;;10.25;;
71462;SDS011;59266;52.608;13.260;2022-09-11T03:14:11;24.60;;;10.60;;
71462;SDS011;59266;52.608;13.260;2022-09-11T03:16:38;25.77;;;11.25;;
71462;SDS011;59266;52.608;13.260;2022-09-11T03:19:06;32.55;;;10.80;;
71462;SDS011;59266;52.608;13.260;2022-09-11T03:21:33;35.35;;;11.23;;
71462;SDS011;59266;52.608;13.260;2022-09-11T03:24:00;33.03;;;11.55;;
71462;SDS011;59266;52.608;13.260;2022-09-11T03:26:26;46.75;;;11.73;;
71462;SDS011;59266;52.608;13.260;2022-09-11T03:28:54;54.15;;;13.52;;
71462;SDS011;59266;52.608;13.260;2022-09-11T03:31:20;24.65;;;11.50;;
71462;SDS011;59266;52.608;13.260;2022-09-11T03:33:47;29.75;;;11.60;;
71462;SDS011;59266;52.608;13.260;2022-09-11T03:36:13;37.30;;;12.02;;
71462;SDS011;59266;52.608;13.260;2022-09-11T03:38:40;32.50;;;11.43;;
71462;SDS011;59266;52.608;13.260;2022-09-11T03:41:07;25.15;;;10.95;;
71462;SDS011;59266;52.608;13.260;2022-09-11T03:43:34;26.05;;;11.40;;
71462;SDS011;59266;52.608;13.260;2022-09-11T03:46:01;24.67;;;11.25;;
71462;SDS011;59266;52.608;13.260;2022-09-11T03:48:28;31.08;;;11.32;;
71462;SDS011;59266;52.608;13.260;2022-09-11T03:50:54;33.20;;;11.10;;
71462;SDS011;59266;52.608;13.260;2022-09-11T03:53:21;28.48;;;10.90;;
71462;SDS011;59266;52.608;13.260;2022-09-11T03:55:47;25.77;;;9.70;;
71462;SDS011;59266;52.608;13.260;2022-09-11T03:58:15;29.33;;;10.20;;
71462;SDS011;59266;52.608;13.260;2022-09-11T04:00:44;29.60;;;11.10;;
71462;SDS011;59266;52.608;13.260;2022-09-11T04:03:12;24.77;;;10.43;;
71462;SDS011;59266;52.608;13.260;2022-09-11T04:05:41;27.25;;;10.02;;
71462;SDS011;59266;52.608;13.260;2022-09-11T04:08:12;29.10;;;10.73;;
71462;SDS011;59266;52.608;13.260;2022-09-11T04:10:39;24.27;;;9.52;;
71462;SDS011;59266;52.608;13.260;2022-09-11T04:13:05;30.20;;;10.32;;
71462;SDS011;59266;52.608;13.260;2022-09-11T04:15:32;30.45;;;10.95;;
71462;SDS011;59266;52.608;13.260;2022-09-11T04:17:58;30.10;;;10.85;;
71462;SDS011;59266;52.608;13.260;2022-09-11T04:20:30;31.55;;;10.48;;
71462;SDS011;59266;52.608;13.260;2022-09-11T04:22:57;30.88;;;10.05;;
71462;SDS011;59266;52.608;13.260;2022-09-11T04:25:23;30.20;;;10.50;;
71462;SDS011;59266;52.608;13.260;2022-09-11T04:27:50;27.35;;;11.20;;
71462;SDS011;59266;52.608;13.260;2022-09-11T04:30:16;27.70;;;11.80;;
71462;SDS011;59266;52.608;13.260;2022-09-11T04:32:43;26.02;;;10.60;;
71462;SDS011;59266;52.608;13.260;2022-09-11T04:35:11;32.15;;;11.20;;
71462;SDS011;59266;52.608;13.260;2022-09-11T04:37:37;27.98;;;11.60;;
71462;SDS011;59266;52.608;13.260;2022-09-11T04:40:04;37.00;;;12.35;;
71462;SDS011;59266;52.608;13.260;2022-09-11T04:42:31;32.63;;;11.70;;
71462;SDS011;59266;52.608;13.260;2022-09-11T04:44:57;37.05;;;12.48;;
71462;SDS011;59266;52.608;13.260;2022-09-11T04:47:23;33.70;;;12.27;;
71462;SDS011;59266;52.608;13.260;2022-09-11T04:49:50;42.47;;;12.73;;
71462;SDS011;59266;52.608;13.260;2022-09-11T04:52:17;34.35;;;12.73;;
71462;SDS011;59266;52.608;13.260;2022-09-11T04:54:43;38.55;;;14.00;;
71462;SDS011;59266;52.608;13.260;2022-09-11T04:57:11;33.88;;;13.02;;
71462;SDS011;59266;52.608;13.260;2022-09-11T04:59:39;39.25;;;13.10;;
71462;SDS011;59266;52.608;13.260;2022-09-11T05:02:05;39.40;;;12.63;;
71462;SDS011;59266;52.608;13.260;2022-09-11T05:04:32;38.10;;;12.93;;
71462;SDS011;59266;52.608;13.260;2022-09-11T05:06:58;37.70;;;12.95;;
71462;SDS011;59266;52.608;13.260;2022-09-11T05:09:25;36.70;;;12.52;;
71462;SDS011;59266;52.608;13.260;2022-09-11T05:11:52;36.85;;;13.43;;
71462;SDS011;59266;52.608;13.260;2022-09-11T05:14:19;39.40;;;13.88;;
71462;SDS011;59266;52.608;13.260;2022-09-11T05:16:46;41.90;;;13.57;;
71462;SDS011;59266;52.608;13.260;2022-09-11T05:19:12;44.50;;;15.32;;
71462;SDS011;59266;52.608;13.260;2022-09-11T05:21:39;35.92;;;12.82;;
71462;SDS011;59266;52.608;13.260;2022-09-11T05:24:06;38.25;;;14.13;;
71462;SDS011;59266;52.608;13.260;2022-09-11T05:26:34;39.30;;;14.63;;
71462;SDS011;59266;52.608;13.260;2022-09-11T05:29:03;44.40;;;14.85;;
71462;SDS011;59266;52.608;13.260;2022-09-11T05:31:32;39.17;;;13.68;;
71462;SDS011;59266;52.608;13.260;2022-09-11T05:33:59;39.25;;;14.88;;
71462;SDS011;59266;52.608;13.260;2022-09-11T05:36:26;36.88;;;13.93;;
71462;SDS011;59266;52.608;13.260;2022-09-11T05:38:53;41.95;;;15.13;;
71462;SDS011;59266;52.608;13.260;2022-09-11T05:41:20;37.78;;;14.05;;
71462;SDS011;59266;52.608;13.260;2022-09-11T05:43:46;42.30;;;13.18;;
71462;SDS011;59266;52.608;13.260;2022-09-11T05:46:14;39.40;;;14.10;;
71462;SDS011;59266;52.608;13.260;2022-09-11T05:48:41;41.80;;;14.52;;
71462;SDS011;59266;52.608;13.260;2022-09-11T05:51:09;37.63;;;14.55;;
71462;SDS011;59266;52.608;13.260;2022-09-11T05:53:38;38.67;;;14.77;;
71462;SDS011;59266;52.608;13.260;2022-09-11T05:56:05;38.22;;;14.20;;
71462;SDS011;59266;52.608;13.260;2022-09-11T05:58:46;40.78;;;14.65;;
71462;SDS011;59266;52.608;13.260;2022-09-11T06:01:14;33.25;;;14.15;;
71462;SDS011;59266;52.608;13.260;2022-09-11T06:03:42;34.13;;;14.68;;
71462;SDS011;59266;52.608;13.260;2022-09-11T06:06:10;33.00;;;14.75;;
71462;SDS011;59266;52.608;13.260;2022-09-11T06:08:38;34.28;;;14.13;;
71462;SDS011;59266;52.608;13.260;2022-09-11T06:11:07;32.45;;;14.23;;
71462;SDS011;59266;52.608;13.260;2022-09-11T06:13:34;38.30;;;15.63;;
71462;SDS011;59266;52.608;13.260;2022-09-11T06:16:06;31.00;;;13.55;;
71462;SDS011;59266;52.608;13.260;2022-09-11T06:18:35;31.13;;;14.00;;
71462;SDS011;59266;52.608;13.260;2022-09-11T06:21:02;32.00;;;14.27;;
71462;SDS011;59266;52.608;13.260;2022-09-11T06:23:36;32.83;;;14.70;;
71462;SDS011;59266;52.608;13.260;2022-09-11T06:26:09;32.70;;;13.70;;
71462;SDS011;59266;52.608;13.260;2022-09-11T06:28:37;28.38;;;13.38;;
71462;SDS011;59266;52.608;13.260;2022-09-11T06:31:04;28.40;;;12.82;;
71462;SDS011;59266;52.608;13.260;2022-09-11T06:33:33;27.45;;;13.40;;
71462;SDS011;59266;52.608;13.260;2022-09-11T06:36:02;28.83;;;12.77;;
71462;SDS011;59266;52.608;13.260;2022-09-11T06:38:31;31.67;;;12.90;;
71462;SDS011;59266;52.608;13.260;2022-09-11T06:40:59;27.30;;;12.82;;
71462;SDS011;59266;52.608;13.260;2022-09-11T06:43:28;30.20;;;13.10;;
71462;SDS011;59266;52.608;13.260;2022-09-11T06:45:54;23.70;;;11.55;;
71462;SDS011;59266;52.608;13.260;2022-09-11T06:48:28;24.92;;;11.57;;
71462;SDS011;59266;52.608;13.260;2022-09-11T06:50:55;25.40;;;11.95;;
71462;SDS011;59266;52.608;13.260;2022-09-11T06:53:22;26.17;;;11.63;;
71462;SDS011;59266;52.608;13.260;2022-09-11T06:55:48;25.50;;;12.70;;
71462;SDS011;59266;52.608;13.260;2022-09-11T06:58:15;25.13;;;11.63;;
71462;SDS011;59266;52.608;13.260;2022-09-11T07:00:41;25.15;;;11.75;;
71462;SDS011;59266;52.608;13.260;2022-09-11T07:03:08;23.20;;;11.70;;
71462;SDS011;59266;52.608;13.260;2022-09-11T07:05:44;26.50;;;11.75;;
71462;SDS011;59266;52.608;13.260;2022-09-11T07:08:12;23.20;;;10.65;;
71462;SDS011;59266;52.608;13.260;2022-09-11T07:10:38;24.17;;;11.35;;
71462;SDS011;59266;52.608;13.260;2022-09-11T07:13:05;21.48;;;11.02;;
71462;SDS011;59266;52.608;13.260;2022-09-11T07:15:31;21.70;;;10.80;;
71462;SDS011;59266;52.608;13.260;2022-09-11T07:17:57;21.70;;;10.90;;
71462;SDS011;59266;52.608;13.260;2022-09-11T07:20:25;22.05;;;11.00;;
71462;SDS011;59266;52.608;13.260;2022-09-11T07:22:52;23.40;;;11.05;;
71462;SDS011;59266;52.608;13.260;2022-09-11T07:25:18;18.92;;;10.25;;
71462;SDS011;59266;52.608;13.260;2022-09-11T07:27:45;23.25;;;11.18;;
71462;SDS011;59266;52.608;13.260;2022-09-11T07:30:11;21.40;;;10.15;;
71462;SDS011;59266;52.608;13.260;2022-09-11T07:32:38;18.75;;;10.23;;
71462;SDS011;59266;52.608;13.260;2022-09-11T07:35:05;20.35;;;10.65;;
71462;SDS011;59266;52.608;13.260;2022-09-11T07:37:32;24.48;;;10.63;;
71462;SDS011;59266;52.608;13.260;2022-09-11T07:39:58;19.52;;;10.02;;
71462;SDS011;59266;52.608;13.260;2022-09-11T07:42:25;20.25;;;9.90;;
71462;SDS011;59266;52.608;13.260;2022-09-11T07:44:51;20.98;;;9.93;;
71462;SDS011;59266;52.608;13.260;2022-09-11T07:47:18;18.35;;;10.35;;
71462;SDS011;59266;52.608;13.260;2022-09-11T07:49:44;21.60;;;10.10;;
71462;SDS011;59266;52.608;13.260;2022-09-11T07:52:11;20.48;;;9.85;;
71462;SDS011;59266;52.608;13.260;2022-09-11T07:54:42;21.33;;;9.93;;
71462;SDS011;59266;52.608;13.260;2022-09-11T07:57:08;20.85;;;9.63;;
71462;SDS011;59266;52.608;13.260;2022-09-11T07:59:36;20.10;;;10.02;;
71462;SDS011;59266;52.608;13.260;2022-09-11T08:02:03;18.55;;;9.57;;
71462;SDS011;59266;52.608;13.260;2022-09-11T08:04:29;19.52;;;9.90;;
71462;SDS011;59266;52.608;13.260;2022-09-11T08:06:56;21.23;;;9.73;;
71462;SDS011;59266;52.608;13.260;2022-09-11T08:09:24;21.48;;;10.10;;
71462;SDS011;59266;52.608;13.260;2022-09-11T08:11:52;19.02;;;10.10;;
71462;SDS011;59266;52.608;13.260;2022-09-11T08:14:20;20.35;;;10.57;;
71462;SDS011;59266;52.608;13.260;2022-09-11T08:16:48;18.23;;;9.75;;
71462;SDS011;59266;52.608;13.260;2022-09-11T08:19:16;19.30;;;9.55;;
71462;SDS011;59266;52.608;13.260;2022-09-11T08:21:43;19.65;;;9.57;;
71462;SDS011;59266;52.608;13.260;2022-09-11T08:24:15;18.90;;;9.90;;
71462;SDS011;59266;52.608;13.260;2022-09-11T08:26:42;17.42;;;9.07;;
71462;SDS011;59266;52.608;13.260;2022-09-11T08:29:14;19.08;;;9.80;;
71462;SDS011;59266;52.608;13.260;2022-09-11T08:31:40;20.65;;;10.48;;
71462;SDS011;59266;52.608;13.260;2022-09-11T08:34:08;19.13;;;11.27;;
71462;SDS011;59266;52.608;13.260;2022-09-11T08:36:35;19.88;;;10.32;;
71462;SDS011;59266;52.608;13.260;2022-09-11T08:39:02;19.67;;;11.18;;
71462;SDS011;59266;52.608;13.260;2022-09-11T08:41:37;17.45;;;9.48;;
71462;SDS011;59266;52.608;13.260;2022-09-11T08:46:35;19.05;;;9.95;;
71462;SDS011;59266;52.608;13.260;2022-09-11T08:49:13;15.40;;;8.55;;
71462;SDS011;59266;52.608;13.260;2022-09-11T08:51:51;17.38;;;9.13;;
71462;SDS011;59266;52.608;13.260;2022-09-11T08:54:21;17.90;;;9.30;;
71462;SDS011;59266;52.608;13.260;2022-09-11T08:56:54;17.85;;;9.18;;
71462;SDS011;59266;52.608;13.260;2022-09-11T08:59:42;18.42;;;9.15;;
71462;SDS011;59266;52.608;13.260;2022-09-11T09:07:53;18.45;;;9.18;;
71462;SDS011;59266;52.608;13.260;2022-09-11T09:10:50;14.23;;;8.00;;
71462;SDS011;59266;52.608;13.260;2022-09-11T09:18:52;19.30;;;9.60;;
71462;SDS011;59266;52.608;13.260;2022-09-11T09:21:27;17.85;;;9.75;;
71462;SDS011;59266;52.608;13.260;2022-09-11T09:24:01;16.60;;;8.70;;
71462;SDS011;59266;52.608;13.260;2022-09-11T09:26:32;16.55;;;9.10;;
71462;SDS011;59266;52.608;13.260;2022-09-11T09:29:07;19.27;;;9.93;;
71462;SDS011;59266;52.608;13.260;2022-09-11T09:31:38;18.88;;;10.07;;
71462;SDS011;59266;52.608;13.260;2022-09-11T09:34:13;16.65;;;8.93;;
71462;SDS011;59266;52.608;13.260;2022-09-11T09:36:50;16.92;;;8.73;;
71462;SDS011;59266;52.608;13.260;2022-09-11T09:39:23;15.10;;;8.50;;
71462;SDS011;59266;52.608;13.260;2022-09-11T09:41:53;18.65;;;8.50;;
71462;SDS011;59266;52.608;13.260;2022-09-11T09:47:21;15.43;;;8.32;;
71462;SDS011;59266;52.608;13.260;2022-09-11T09:49:47;14.93;;;7.60;;
71462;SDS011;59266;52.608;13.260;2022-09-11T09:52:16;18.25;;;8.57;;
71462;SDS011;59266;52.608;13.260;2022-09-11T09:57:28;16.88;;;7.28;;
71462;SDS011;59266;52.608;13.260;2022-09-11T10:00:02;13.95;;;6.85;;
71462;SDS011;59266;52.608;13.260;2022-09-11T10:02:36;15.25;;;7.60;;
71462;SDS011;59266;52.608;13.260;2022-09-11T10:05:05;13.93;;;7.38;;
71462;SDS011;59266;52.608;13.260;2022-09-11T10:07:46;13.75;;;7.00;;
71462;SDS011;59266;52.608;13.260;2022-09-11T10:18:21;13.30;;;7.10;;
71462;SDS011;59266;52.608;13.260;2022-09-11T10:23:48;15.20;;;7.75;;
71462;SDS011;59266;52.608;13.260;2022-09-11T10:26:39;12.32;;;7.03;;
71462;SDS011;59266;52.608;13.260;2022-09-11T10:29:15;16.30;;;8.80;;
71462;SDS011;59266;52.608;13.260;2022-09-11T10:31:48;15.35;;;7.30;;
71462;SDS011;59266;52.608;13.260;2022-09-11T10:34:16;15.27;;;7.75;;
71462;SDS011;59266;52.608;13.260;2022-09-11T10:36:52;14.63;;;6.95;;
71462;SDS011;59266;52.608;13.260;2022-09-11T10:39:20;15.93;;;7.82;;
71462;SDS011;59266;52.608;13.260;2022-09-11T10:41:49;15.25;;;7.57;;
71462;SDS011;59266;52.608;13.260;2022-09-11T10:47:01;16.70;;;7.85;;
71462;SDS011;59266;52.608;13.260;2022-09-11T10:49:38;17.48;;;7.88;;
71462;SDS011;59266;52.608;13.260;2022-09-11T10:54:38;13.27;;;7.38;;
71462;SDS011;59266;52.608;13.260;2022-09-11T10:57:18;14.30;;;7.68;;
71462;SDS011;59266;52.608;13.260;2022-09-11T11:02:35;13.68;;;6.20;;
71462;SDS011;59266;52.608;13.260;2022-09-11T11:05:06;13.23;;;7.40;;
71462;SDS011;59266;52.608;13.260;2022-09-11T11:08:04;16.58;;;7.40;;
71462;SDS011;59266;52.608;13.260;2022-09-11T11:11:15;14.35;;;6.95;;
71462;SDS011;59266;52.608;13.260;2022-09-11T11:22:49;11.25;;;6.25;;
71462;SDS011;59266;52.608;13.260;2022-09-11T11:25:24;12.10;;;6.32;;
71462;SDS011;59266;52.608;13.260;2022-09-11T11:27:58;12.05;;;6.63;;
71462;SDS011;59266;52.608;13.260;2022-09-11T11:36:23;10.90;;;5.68;;
71462;SDS011;59266;52.608;13.260;2022-09-11T11:38:57;10.93;;;5.63;;
71462;SDS011;59266;52.608;13.260;2022-09-11T11:41:31;10.07;;;5.72;;
71462;SDS011;59266;52.608;13.260;2022-09-11T11:44:01;10.05;;;5.03;;
71462;SDS011;59266;52.608;13.260;2022-09-11T11:46:34;10.65;;;4.78;;
71462;SDS011;59266;52.608;13.260;2022-09-11T11:49:09;9.73;;;4.82;;
71462;SDS011;59266;52.608;13.260;2022-09-11T11:51:54;8.68;;;4.72;;
71462;SDS011;59266;52.608;13.260;2022-09-11T11:56:53;9.05;;;4.43;;
71462;SDS011;59266;52.608;13.260;2022-09-11T11:59:40;7.88;;;4.30;;
71462;SDS011;59266;52.608;13.260;2022-09-11T12:02:14;8.10;;;4.07;;
71462;SDS011;59266;52.608;13.260;2022-09-11T12:04:51;8.70;;;4.40;;
71462;SDS011;59266;52.608;13.260;2022-09-11T12:09:56;9.02;;;4.03;;
71462;SDS011;59266;52.608;13.260;2022-09-11T12:12:26;8.93;;;3.90;;
71462;SDS011;59266;52.608;13.260;2022-09-11T12:14:59;7.53;;;3.63;;
71462;SDS011;59266;52.608;13.260;2022-09-11T12:17:30;7.80;;;4.00;;
71462;SDS011;59266;52.608;13.260;2022-09-11T12:22:41;8.95;;;4.03;;
71462;SDS011;59266;52.608;13.260;2022-09-11T12:32:50;7.63;;;3.75;;
71462;SDS011;59266;52.608;13.260;2022-09-11T12:35:23;8.50;;;3.63;;
71462;SDS011;59266;52.608;13.260;2022-09-11T12:37:53;7.88;;;4.00;;
71462;SDS011;59266;52.608;13.260;2022-09-11T12:40:29;8.52;;;3.55;;
71462;SDS011;59266;52.608;13.260;2022-09-11T12:43:14;8.15;;;3.70;;
71462;SDS011;59266;52.608;13.260;2022-09-11T12:45:59;8.63;;;3.80;;
71462;SDS011;59266;52.608;13.260;2022-09-11T12:48:34;7.88;;;3.97;;
71462;SDS011;59266;52.608;13.260;2022-09-11T12:51:05;8.60;;;3.92;;
71462;SDS011;59266;52.608;13.260;2022-09-11T12:53:46;8.93;;;4.70;;
71462;SDS011;59266;52.608;13.260;2022-09-11T12:56:16;8.68;;;4.45;;
71462;SDS011;59266;52.608;13.260;2022-09-11T12:58:50;8.23;;;4.32;;
71462;SDS011;59266;52.608;13.260;2022-09-11T13:01:23;8.95;;;4.97;;
71462;SDS011;59266;52.608;13.260;2022-09-11T13:03:57;9.27;;;4.70;;
71462;SDS011;59266;52.608;13.260;2022-09-11T13:06:43;9.02;;;5.10;;
71462;SDS011;59266;52.608;13.260;2022-09-11T13:14:53;8.40;;;4.50;;
71462;SDS011;59266;52.608;13.260;2022-09-11T13:17:24;9.38;;;4.78;;
71462;SDS011;59266;52.608;13.260;2022-09-11T13:19:56;7.90;;;4.60;;
71462;SDS011;59266;52.608;13.260;2022-09-11T13:22:44;8.38;;;4.53;;
71462;SDS011;59266;52.608;13.260;2022-09-11T13:25:15;7.10;;;3.97;;
71462;SDS011;59266;52.608;13.260;2022-09-11T13:27:47;6.80;;;3.33;;
71462;SDS011;59266;52.608;13.260;2022-09-11T13:30:17;6.63;;;3.20;;
71462;SDS011;59266;52.608;13.260;2022-09-11T13:32:47;8.80;;;4.20;;
71462;SDS011;59266;52.608;13.260;2022-09-11T13:40:27;7.72;;;3.33;;
71462;SDS011;59266;52.608;13.260;2022-09-11T13:42:57;6.13;;;2.63;;
71462;SDS011;59266;52.608;13.260;2022-09-11T13:45:25;6.78;;;2.70;;
71462;SDS011;59266;52.608;13.260;2022-09-11T13:47:53;5.75;;;2.80;;
71462;SDS011;59266;52.608;13.260;2022-09-11T13:50:20;5.90;;;2.80;;
71462;SDS011;59266;52.608;13.260;2022-09-11T13:52:49;7.03;;;2.47;;
71462;SDS011;59266;52.608;13.260;2022-09-11T13:55:19;8.30;;;2.70;;
71462;SDS011;59266;52.608;13.260;2022-09-11T13:57:58;6.70;;;2.80;;
71462;SDS011;59266;52.608;13.260;2022-09-11T14:03:04;6.57;;;2.58;;
71462;SDS011;59266;52.608;13.260;2022-09-11T14:05:45;5.38;;;2.42;;
71462;SDS011;59266;52.608;13.260;2022-09-11T14:13:41;7.65;;;2.50;;
71462;SDS011;59266;52.608;13.260;2022-09-11T14:21:39;6.53;;;2.15;;
71462;SDS011;59266;52.608;13.260;2022-09-11T14:24:31;7.30;;;2.67;;
71462;SDS011;59266;52.608;13.260;2022-09-11T14:26:58;6.75;;;2.70;;
71462;SDS011;59266;52.608;13.260;2022-09-11T14:29:27;6.38;;;2.50;;
71462;SDS011;59266;52.608;13.260;2022-09-11T14:35:05;6.45;;;2.47;;
71462;SDS011;59266;52.608;13.260;2022-09-11T14:37:37;5.75;;;2.55;;
71462;SDS011;59266;52.608;13.260;2022-09-11T14:40:15;6.18;;;2.53;;
71462;SDS011;59266;52.608;13.260;2022-09-11T14:42:43;6.32;;;2.40;;
71462;SDS011;59266;52.608;13.260;2022-09-11T14:45:16;5.50;;;2.58;;
71462;SDS011;59266;52.608;13.260;2022-09-11T14:47:44;7.88;;;3.25;;
71462;SDS011;59266;52.608;13.260;2022-09-11T14:50:11;6.88;;;3.10;;
71462;SDS011;59266;52.608;13.260;2022-09-11T14:52:38;8.98;;;4.32;;
71462;SDS011;59266;52.608;13.260;2022-09-11T14:55:14;9.20;;;5.22;;
71462;SDS011;59266;52.608;13.260;2022-09-11T14:57:43;8.18;;;4.25;;
71462;SDS011;59266;52.608;13.260;2022-09-11T15:00:12;7.95;;;4.07;;
71462;SDS011;59266;52.608;13.260;2022-09-11T15:02:39;7.70;;;3.95;;
71462;SDS011;59266;52.608;13.260;2022-09-11T15:05:14;7.15;;;3.72;;
71462;SDS011;59266;52.608;13.260;2022-09-11T15:07:42;6.97;;;3.63;;
71462;SDS011;59266;52.608;13.260;2022-09-11T15:10:11;7.50;;;3.75;;
71462;SDS011;59266;52.608;13.260;2022-09-11T15:12:39;7.93;;;3.90;;
71462;SDS011;59266;52.608;13.260;2022-09-11T15:15:05;10.88;;;5.43;;
71462;SDS011;59266;52.608;13.260;2022-09-11T15:17:32;8.00;;;3.90;;
71462;SDS011;59266;52.608;13.260;2022-09-11T15:20:02;7.15;;;3.60;;
71462;SDS011;59266;52.608;13.260;2022-09-11T15:22:31;8.27;;;3.72;;
71462;SDS011;59266;52.608;13.260;2022-09-11T15:24:57;7.88;;;4.03;;
71462;SDS011;59266;52.608;13.260;2022-09-11T15:27:25;8.25;;;3.72;;
71462;SDS011;59266;52.608;13.260;2022-09-11T15:29:52;7.13;;;3.80;;
71462;SDS011;59266;52.608;13.260;2022-09-11T15:32:18;7.53;;;3.50;;
71462;SDS011;59266;52.608;13.260;2022-09-11T15:34:46;7.22;;;3.55;;
71462;SDS011;59266;52.608;13.260;2022-09-11T15:37:13;7.43;;;3.47;;
71462;SDS011;59266;52.608;13.260;2022-09-11T15:39:41;6.40;;;2.97;;
71462;SDS011;59266;52.608;13.260;2022-09-11T15:42:08;6.18;;;2.75;;
71462;SDS011;59266;52.608;13.260;2022-09-11T15:44:35;5.25;;;2.25;;
71462;SDS011;59266;52.608;13.260;2022-09-11T15:47:01;5.47;;;2.30;;
71462;SDS011;59266;52.608;13.260;2022-09-11T15:49:29;5.85;;;2.80;;
71462;SDS011;59266;52.608;13.260;2022-09-11T15:51:57;5.85;;;2.08;;
71462;SDS011;59266;52.608;13.260;2022-09-11T15:54:24;6.82;;;2.65;;
71462;SDS011;59266;52.608;13.260;2022-09-11T15:56:51;5.70;;;2.42;;
71462;SDS011;59266;52.608;13.260;2022-09-11T15:59:18;5.47;;;2.40;;
71462;SDS011;59266;52.608;13.260;2022-09-11T16:01:44;6.13;;;2.38;;
71462;SDS011;59266;52.608;13.260;2022-09-11T16:04:15;5.47;;;2.30;;
71462;SDS011;59266;52.608;13.260;2022-09-11T16:06:45;5.50;;;2.60;;
71462;SDS011;59266;52.608;13.260;2022-09-11T16:09:17;13.98;;;5.90;;
71462;SDS011;59266;52.608;13.260;2022-09-11T16:11:46;9.48;;;3.42;;
71462;SDS011;59266;52.608;13.260;2022-09-11T16:14:16;5.93;;;2.47;;
71462;SDS011;59266;52.608;13.260;2022-09-11T16:16:44;4.53;;;2.03;;
71462;SDS011;59266;52.608;13.260;2022-09-11T16:19:14;4.90;;;2.10;;
71462;SDS011;59266;52.608;13.260;2022-09-11T16:21:42;5.10;;;2.08;;
71462;SDS011;59266;52.608;13.260;2022-09-11T16:24:08;5.35;;;2.40;;
71462;SDS011;59266;52.608;13.260;2022-09-11T16:26:36;5.00;;;2.20;;
71462;SDS011;59266;52.608;13.260;2022-09-11T16:29:07;5.38;;;2.13;;
71462;SDS011;59266;52.608;13.260;2022-09-11T16:31:36;6.22;;;2.45;;
71462;SDS011;59266;52.608;13.260;2022-09-11T16:34:02;6.25;;;2.45;;
71462;SDS011;59266;52.608;13.260;2022-09-11T16:36:29;4.57;;;2.10;;
71462;SDS011;59266;52.608;13.260;2022-09-11T16:39:06;5.43;;;2.33;;